Dubrovnik, Croatia

12:40 AM CET on February 26, 2018 (GMT +0100)
Lapad | | Change Station

Elev 0 ft 42.65 °N, 18.08 °E | Updated 15 seconds ago

Mostly Cloudy
Mostly Cloudy
37.2 °F
Feels Like 26 °F
N
22.4
Wind Variable Wind from NE
Gusts 24.8 mph

Today
High -- | Low -- °F
--% Chance of Precip.
Yesterday
High -- | Low -- °F
Precip. -- in
Pressure 29.62 in
Visibility 6.2 miles
Clouds Mostly Cloudy 4000 ft
Windchill 26 °F
Dew Point 18 °F
Humidity 45%
Rainfall 0.00 in
Snow Depth Not available.
6:28 AM 5:33 PM
Waxing Gibbous, 79% visible
METAR LDDU 252330Z 03026KT 360V070 9999 BKN040 02/M09 Q1003
Pressure 29.62 in
Visibility 6.2 miles
Clouds Mostly Cloudy 4000 ft
Windchill 26 °F
Dew Point 18 °F
Humidity 45%
Rainfall 0.00 in
Snow Depth Not available.
6:28 AM 5:33 PM
Waxing Gibbous, 79% visible
METAR LDDU 252330Z 03026KT 360V070 9999 BKN040 02/M09 Q1003

Get Severe Weather Alerts

Thanks for signing up!

Be on the lookout for a verification email in your inbox.

You'll start receiving the daily forecast at 6 AM.

×

10-Day Weather Forecast

×

Almanac

Astronomy

Feb. 26, 2018 Rise Set
Actual Time
Civil Twilight
Nautical Twilight
Astronomical Twilight
Moon
Length of Visible Light
Length of Day
Tomorrow will be .
, % of the Moon is Illuminated

Today's Extremes

Country Highs Country Lows

Community

WunderPhotos

Category 6

Welcome to Category 6. This is the collective home for Weather Underground's featured writeups by Dr. Jeff Masters (right), Bob Henson (left), Chris Burt, and other regular contributors.

Nearby

Air Quality

  Air Quality AQ Index Pollutant
Not available.

Snow Depth

Station Depth Elevation

Earthquake Activity

City Distance Mag. Time & Date
Minimum magnitude displayed is 2.5.

Coastal Water Temperatures

Place Temperature

Stations

Nearby Weather Stations

Station Location Temp. Windchill Dew Point Humidity Wind Precip. Elev Updated Type